Search for airport 
image banner adimage banner adimage banner ad
image banner ad

O88 - Rio Vista Muni

Located in Rio Vista, United States

ICAO - O88, IATA -

Data provided by Airmate  

General information

Coordinates: N38°11'36" W121°42'13"
Elevation is 23 feet MSL.
Magnetic variation is 14° East
View others Airports in California

Operational data

Special qualification required
Current time UTC:
Current local time:
Weather at : KSUU - Travis Afb ( 21 km )
METAR: KSUU 211158Z AUTO 22023G27KT 10SM CLR 14/10 A2981 RMK AO2 PK WND 22031/03 SLP101 T01350103 10167 20135 50001 $
TAF: TAF KSUU 211100Z 2111/2217 23025G35KT 9999 SKC 510003 QNH2976INS BECMG 2114/2115 23015G25KT 9999 SKC QNH2981INS BECMG 2202/2203 23025G35KT 9999 SKC 510003 QNH2983INS TX30/2123Z TN13/2113Z
View NOTAMs / SUP AIP / TFR affecting this airport [VIEW]
Communications frequencies: [VIEW]

Runways:

RWY identifierQFULength (ft)Width (ft)SurfaceLDA (ft)
0786°419975ASPH
25266°419975ASPH
15160°219960ASPH
33340°219960ASPH

Airport contact information

Address: Rio Vista United States

Other aviation service providers

Flight schools

Travis Aero Club

Travis Aero Club

Satellite view of O88